createdAt,value
2023-04-12T00:00:37.251Z,0.00
2023-04-12T00:01:37.193Z,0.00
2023-04-12T00:02:37.575Z,0.00
2023-04-12T00:03:37.291Z,0.00
2023-04-12T00:04:37.401Z,0.00
2023-04-12T00:05:37.151Z,0.00
2023-04-12T00:06:37.122Z,0.00
2023-04-12T00:07:37.097Z,0.00
2023-04-12T00:08:37.169Z,0.00
2023-04-12T00:09:37.128Z,0.00
2023-04-12T00:10:37.076Z,0.00
2023-04-12T00:11:37.068Z,0.00
2023-04-12T00:12:37.181Z,0.00
2023-04-12T00:13:37.093Z,0.00
2023-04-12T00:14:37.009Z,0.00
2023-04-12T00:15:37.152Z,0.00
2023-04-12T00:16:37.020Z,0.00
2023-04-12T00:17:37.053Z,0.00
2023-04-12T00:18:36.996Z,0.00
2023-04-12T00:19:36.994Z,0.00
2023-04-12T00:20:37.000Z,0.00
2023-04-12T00:21:36.930Z,0.00
2023-04-12T00:22:37.016Z,0.00
2023-04-12T00:23:36.953Z,0.00
2023-04-12T00:24:36.936Z,0.00
2023-04-12T00:25:36.937Z,0.00
2023-04-12T00:26:36.938Z,0.00
2023-04-12T00:27:36.936Z,0.00
2023-04-12T00:28:36.951Z,0.00
2023-04-12T00:29:36.899Z,0.00
2023-04-12T00:30:36.876Z,0.00
2023-04-12T00:31:36.891Z,0.00
2023-04-12T00:32:36.878Z,0.00
2023-04-12T00:33:36.876Z,0.00
2023-04-12T00:34:36.825Z,0.00
2023-04-12T00:35:36.829Z,0.00
2023-04-12T00:36:36.782Z,0.00
2023-04-12T00:37:36.822Z,0.00
2023-04-12T00:38:36.780Z,0.00
2023-04-12T00:39:36.731Z,0.00
2023-04-12T00:40:36.763Z,0.00
2023-04-12T00:41:36.802Z,0.00
2023-04-12T00:42:36.758Z,0.00
2023-04-12T00:43:36.705Z,0.00
2023-04-12T00:44:36.769Z,0.00
2023-04-12T00:45:36.742Z,0.00
2023-04-12T00:46:36.753Z,0.00
2023-04-12T00:47:36.773Z,0.00
2023-04-12T00:48:36.655Z,0.00
2023-04-12T00:49:36.680Z,0.00
2023-04-12T00:50:36.622Z,0.00
2023-04-12T00:51:36.635Z,0.00
2023-04-12T00:52:36.605Z,0.00
2023-04-12T00:53:36.637Z,0.00
2023-04-12T00:54:36.591Z,0.00
2023-04-12T00:55:36.555Z,0.00
2023-04-12T00:56:36.588Z,0.00
2023-04-12T00:57:36.579Z,0.00
2023-04-12T00:58:36.541Z,0.00
2023-04-12T00:59:36.585Z,0.00
2023-04-12T01:00:36.543Z,0.00
2023-04-12T01:01:36.493Z,0.00
2023-04-12T01:02:36.646Z,0.00
2023-04-12T01:03:36.611Z,0.00
2023-04-12T01:04:36.547Z,0.00
2023-04-12T01:05:36.493Z,0.00
2023-04-12T01:06:36.481Z,0.00
2023-04-12T01:07:36.457Z,0.00
2023-04-12T01:08:36.427Z,0.00
2023-04-12T01:09:36.401Z,0.00
2023-04-12T01:10:36.434Z,0.00
2023-04-12T01:11:36.452Z,0.00
2023-04-12T01:12:36.403Z,0.00
2023-04-12T01:13:36.382Z,0.00
2023-04-12T01:14:36.381Z,0.00
2023-04-12T01:15:36.341Z,0.00
2023-04-12T01:16:36.360Z,0.00
2023-04-12T01:17:36.378Z,0.00
2023-04-12T01:18:36.349Z,0.00
2023-04-12T01:19:36.327Z,0.00
2023-04-12T01:20:36.279Z,0.00
2023-04-12T01:21:36.279Z,0.00
2023-04-12T01:22:36.307Z,0.00
2023-04-12T01:23:36.287Z,0.00
2023-04-12T01:24:36.250Z,0.00
2023-04-12T01:25:36.306Z,0.00
2023-04-12T01:26:36.333Z,0.00
2023-04-12T01:27:36.216Z,0.00
2023-04-12T01:28:36.213Z,0.00
2023-04-12T01:29:36.227Z,0.00
2023-04-12T01:30:36.184Z,0.00
2023-04-12T01:31:36.261Z,0.00
2023-04-12T01:32:36.184Z,0.00
2023-04-12T01:33:36.201Z,0.00
2023-04-12T01:34:36.232Z,0.00
2023-04-12T01:35:36.148Z,0.00
2023-04-12T01:36:36.124Z,0.00
2023-04-12T01:37:36.146Z,0.00
2023-04-12T01:38:36.092Z,0.00
2023-04-12T01:39:36.141Z,0.00
2023-04-12T01:40:36.095Z,0.00
2023-04-12T01:41:36.154Z,0.00
2023-04-12T01:42:36.079Z,0.00
2023-04-12T01:43:36.082Z,0.00
2023-04-12T01:44:36.011Z,0.00
2023-04-12T01:45:36.147Z,0.00
2023-04-12T01:46:36.008Z,0.00
2023-04-12T01:47:36.135Z,0.00
2023-04-12T01:48:35.969Z,0.00
2023-04-12T01:49:35.965Z,0.00
2023-04-12T01:50:36.011Z,0.00
2023-04-12T01:51:36.035Z,0.00
2023-04-12T01:52:35.987Z,0.00
2023-04-12T01:53:35.958Z,0.00
2023-04-12T01:54:35.942Z,0.00
2023-04-12T01:55:35.914Z,0.00
2023-04-12T01:56:35.924Z,0.00
2023-04-12T01:57:35.983Z,0.00
2023-04-12T01:58:35.906Z,0.00
2023-04-12T01:59:35.899Z,0.00
2023-04-12T02:00:35.893Z,0.00
2023-04-12T02:01:35.920Z,0.00
2023-04-12T02:02:35.918Z,0.00
2023-04-12T02:03:35.955Z,0.00
2023-04-12T02:04:35.831Z,0.00
2023-04-12T02:05:35.870Z,0.00
2023-04-12T02:06:35.820Z,0.00
2023-04-12T02:07:35.800Z,0.00
2023-04-12T02:08:35.787Z,0.00
2023-04-12T02:09:35.800Z,0.00
2023-04-12T02:10:35.824Z,0.00
2023-04-12T02:11:35.756Z,0.00
2023-04-12T02:12:35.779Z,0.00
2023-04-12T02:13:35.755Z,0.00
2023-04-12T02:14:35.715Z,0.00
2023-04-12T02:15:35.732Z,0.00
2023-04-12T02:16:35.823Z,0.00
2023-04-12T02:17:35.750Z,0.00
2023-04-12T02:18:35.717Z,0.00
2023-04-12T02:19:35.683Z,0.00
2023-04-12T02:20:35.657Z,0.00
2023-04-12T02:21:35.653Z,0.00
2023-04-12T02:22:35.641Z,0.00
2023-04-12T02:23:35.647Z,0.00
2023-04-12T02:24:35.609Z,0.00
2023-04-12T02:25:35.633Z,0.00
2023-04-12T02:26:35.600Z,0.00
2023-04-12T02:27:35.581Z,0.00
2023-04-12T02:28:35.562Z,0.00
2023-04-12T02:29:35.571Z,0.00
2023-04-12T02:30:35.647Z,0.00
2023-04-12T02:31:35.592Z,0.00
2023-04-12T02:32:35.514Z,0.00
2023-04-12T02:33:35.528Z,0.00
2023-04-12T02:34:35.518Z,0.00
2023-04-12T02:35:35.534Z,0.00
2023-04-12T02:36:35.529Z,0.00
2023-04-12T02:37:35.509Z,0.00
2023-04-12T02:38:35.472Z,0.00
2023-04-12T02:39:35.455Z,0.00
2023-04-12T02:40:35.461Z,0.00
2023-04-12T02:41:35.440Z,0.00
2023-04-12T02:42:35.719Z,0.00
2023-04-12T02:43:35.497Z,0.00
2023-04-12T02:44:35.501Z,0.00
2023-04-12T02:45:35.380Z,0.00
2023-04-12T02:46:35.606Z,0.00
2023-04-12T02:47:35.444Z,0.00
2023-04-12T02:48:35.328Z,0.00
2023-04-12T02:49:35.364Z,0.00
2023-04-12T02:50:35.334Z,0.00
2023-04-12T02:51:35.337Z,0.00
2023-04-12T02:52:35.305Z,0.00
2023-04-12T02:53:35.296Z,0.00
2023-04-12T02:54:35.318Z,0.00
2023-04-12T02:55:35.268Z,0.00
2023-04-12T02:56:35.260Z,0.00
2023-04-12T02:57:35.296Z,0.00
2023-04-12T02:58:35.273Z,0.00
2023-04-12T02:59:35.300Z,0.00
2023-04-12T03:00:35.290Z,0.00
2023-04-12T03:01:35.323Z,0.00
2023-04-12T03:02:35.300Z,0.00
2023-04-12T03:03:35.342Z,0.00
2023-04-12T03:04:35.199Z,0.00
2023-04-12T03:05:35.192Z,0.00
2023-04-12T03:06:35.143Z,0.00
2023-04-12T03:07:35.145Z,0.00
2023-04-12T03:08:35.158Z,0.00
2023-04-12T03:09:35.139Z,0.00
2023-04-12T03:10:35.163Z,0.00
2023-04-12T03:11:35.170Z,0.00
2023-04-12T03:12:35.117Z,0.00
2023-04-12T03:13:35.079Z,0.00
2023-04-12T03:14:35.064Z,0.00
2023-04-12T03:15:35.210Z,0.00
2023-04-12T03:16:35.086Z,0.00
2023-04-12T03:17:35.047Z,0.00
2023-04-12T03:18:35.055Z,0.00
2023-04-12T03:19:35.019Z,0.00
2023-04-12T03:20:35.058Z,0.00
2023-04-12T03:21:35.069Z,0.00
2023-04-12T03:22:34.965Z,0.00
2023-04-12T03:23:35.008Z,0.00
2023-04-12T03:24:34.972Z,0.00
2023-04-12T03:25:35.001Z,0.00
2023-04-12T03:26:34.922Z,0.00
2023-04-12T03:27:35.016Z,0.00
2023-04-12T03:28:34.928Z,0.00
2023-04-12T03:29:34.904Z,0.00
2023-04-12T03:30:34.869Z,0.00
2023-04-12T03:31:35.094Z,0.00
2023-04-12T03:32:35.181Z,0.00
2023-04-12T03:33:34.869Z,0.00
2023-04-12T03:34:34.946Z,0.00
2023-04-12T03:35:34.961Z,0.00
2023-04-12T03:36:34.887Z,0.00
2023-04-12T03:37:34.825Z,0.00
2023-04-12T03:38:34.828Z,0.00
2023-04-12T03:39:34.908Z,0.00
2023-04-12T03:40:34.789Z,0.00
2023-04-12T03:41:34.794Z,0.00
2023-04-12T03:42:34.824Z,0.00
2023-04-12T03:43:34.793Z,0.00
2023-04-12T03:44:34.820Z,0.00
2023-04-12T03:45:34.800Z,0.00
2023-04-12T03:46:34.770Z,0.00
2023-04-12T03:47:34.769Z,0.00
2023-04-12T03:48:34.666Z,0.00
2023-04-12T03:49:34.680Z,0.00
2023-04-12T03:50:34.692Z,0.00
2023-04-12T03:51:34.695Z,0.00
2023-04-12T03:52:34.665Z,0.00
2023-04-12T03:53:34.630Z,0.00
2023-04-12T03:54:34.692Z,0.00
2023-04-12T03:55:34.628Z,0.00
2023-04-12T03:56:34.633Z,0.00
2023-04-12T03:57:34.887Z,0.00
2023-04-12T03:58:34.612Z,0.00
2023-04-12T03:59:34.608Z,0.00
2023-04-12T04:00:34.553Z,0.00
2023-04-12T04:01:34.552Z,0.00
2023-04-12T04:02:34.679Z,0.00
2023-04-12T04:03:34.653Z,0.00
2023-04-12T04:04:34.644Z,0.00
2023-04-12T04:05:34.505Z,0.00
2023-04-12T04:06:34.549Z,0.00
2023-04-12T04:07:34.494Z,0.00
2023-04-12T04:08:34.502Z,0.00
2023-04-12T04:09:34.482Z,0.00
2023-04-12T04:10:34.467Z,0.00
2023-04-12T04:11:34.476Z,0.00
2023-04-12T04:12:34.376Z,1.00
2023-04-12T04:13:34.425Z,0.00
2023-04-12T04:14:34.400Z,0.00
2023-04-12T04:15:34.381Z,1.00
2023-04-12T04:16:34.363Z,1.00
2023-04-12T04:17:34.381Z,1.00
2023-04-12T04:18:34.321Z,2.00
2023-04-12T04:19:34.317Z,2.00
2023-04-12T04:20:34.275Z,2.00
2023-04-12T04:21:34.313Z,1.00
2023-04-12T04:22:34.258Z,1.00
2023-04-12T04:23:34.268Z,2.00
2023-04-12T04:24:34.273Z,3.00
2023-04-12T04:25:34.268Z,3.00
2023-04-12T04:26:34.279Z,4.00
2023-04-12T04:27:34.217Z,1.00
2023-04-12T04:28:35.217Z,3.00
2023-04-12T04:29:34.201Z,9.00
2023-04-12T04:30:34.346Z,11.00
2023-04-12T04:31:34.231Z,13.00
2023-04-12T04:32:34.241Z,14.00
2023-04-12T04:33:34.186Z,15.00
2023-04-12T04:34:34.130Z,25.00
2023-04-12T04:35:34.191Z,23.00
2023-04-12T04:36:34.122Z,22.00
2023-04-12T04:37:34.131Z,28.00
2023-04-12T04:38:34.123Z,36.00
2023-04-12T04:39:34.086Z,36.00
2023-04-12T04:40:34.093Z,40.00
2023-04-12T04:41:34.080Z,44.00
2023-04-12T04:42:34.076Z,42.00
2023-04-12T04:43:34.182Z,42.00
2023-04-12T04:44:34.030Z,52.00
2023-04-12T04:45:34.059Z,56.00
2023-04-12T04:46:34.030Z,51.00
2023-04-12T04:47:34.107Z,58.00
2023-04-12T04:48:34.005Z,58.00
2023-04-12T04:49:34.076Z,63.00
2023-04-12T04:50:33.958Z,65.00
2023-04-12T04:51:33.949Z,77.00
2023-04-12T04:52:34.028Z,87.00
2023-04-12T04:53:33.971Z,88.00
2023-04-12T04:54:33.955Z,88.00
2023-04-12T04:55:33.946Z,87.00
2023-04-12T04:56:34.003Z,89.00
2023-04-12T04:57:33.937Z,87.00
2023-04-12T04:58:33.941Z,91.00
2023-04-12T04:59:33.925Z,91.00
2023-04-12T05:00:33.875Z,94.00
2023-04-12T05:01:33.887Z,101.00
2023-04-12T05:02:33.978Z,106.00
2023-04-12T05:03:33.886Z,111.00
2023-04-12T05:04:33.828Z,120.00
2023-04-12T05:05:33.844Z,125.00
2023-04-12T05:06:33.837Z,126.00
2023-04-12T05:07:33.821Z,118.00
2023-04-12T05:08:33.776Z,113.00
2023-04-12T05:09:33.899Z,117.00
2023-04-12T05:10:33.774Z,119.00
2023-04-12T05:11:33.771Z,125.00
2023-04-12T05:12:33.753Z,136.00
2023-04-12T05:13:33.751Z,140.00
2023-04-12T05:14:44.423Z,145.00
2023-04-12T05:15:33.785Z,149.00
2023-04-12T05:16:33.812Z,157.00
2023-04-12T05:17:33.761Z,165.00
2023-04-12T05:18:33.727Z,177.00
2023-04-12T05:19:33.661Z,190.00
2023-04-12T05:20:33.669Z,192.00
2023-04-12T05:21:33.621Z,194.00
2023-04-12T05:22:33.685Z,197.00
2023-04-12T05:23:33.640Z,200.00
2023-04-12T05:24:33.613Z,206.00
2023-04-12T05:25:33.591Z,208.00
2023-04-12T05:26:33.570Z,207.00
2023-04-12T05:27:33.560Z,200.00
2023-04-12T05:28:33.651Z,215.00
2023-04-12T05:29:33.640Z,232.00
2023-04-12T05:30:33.549Z,253.00
2023-04-12T05:31:33.569Z,262.00
2023-04-12T05:32:33.573Z,283.00
2023-04-12T05:33:33.581Z,315.00
2023-04-12T05:34:33.497Z,315.00
2023-04-12T05:35:33.500Z,310.00
2023-04-12T05:36:33.476Z,299.00
2023-04-12T05:37:33.470Z,283.00
2023-04-12T05:38:33.454Z,333.00
2023-04-12T05:39:33.431Z,375.00
2023-04-12T05:40:33.457Z,331.00
2023-04-12T05:41:33.534Z,329.00
2023-04-12T05:42:33.398Z,355.00
2023-04-12T05:43:33.385Z,385.00
2023-04-12T05:44:33.409Z,444.00
2023-04-12T05:45:33.371Z,477.00
2023-04-12T05:46:33.392Z,500.00
2023-04-12T05:47:33.362Z,513.00
2023-04-12T05:48:33.334Z,509.00
2023-04-12T05:49:33.317Z,487.00
2023-04-12T05:50:33.351Z,454.00
2023-04-12T05:51:40.962Z,469.00
2023-04-12T05:52:33.305Z,463.00
2023-04-12T05:53:33.288Z,448.00
2023-04-12T05:54:33.282Z,468.00
2023-04-12T05:55:34.055Z,483.00
2023-04-12T05:56:33.261Z,483.00
2023-04-12T05:57:33.248Z,459.00
2023-04-12T05:58:33.249Z,455.00
2023-04-12T05:59:33.235Z,494.00
2023-04-12T06:00:33.212Z,497.00
2023-04-12T06:01:33.208Z,534.00
2023-04-12T06:02:33.336Z,508.00
2023-04-12T06:03:33.394Z,522.00
2023-04-12T06:04:48.621Z,511.00
2023-04-12T06:05:33.195Z,421.00
2023-04-12T06:06:33.147Z,417.00
2023-04-12T06:07:33.136Z,482.00
2023-04-12T06:08:34.922Z,525.00
2023-04-12T06:09:33.105Z,626.00
2023-04-12T06:10:33.160Z,612.00
2023-04-12T06:11:33.099Z,547.00
2023-04-12T06:12:33.111Z,539.00
2023-04-12T06:13:33.055Z,524.00
2023-04-12T06:14:33.058Z,515.00
2023-04-12T06:15:33.064Z,478.00
2023-04-12T06:16:33.234Z,527.00
2023-04-12T06:17:33.061Z,468.00
2023-04-12T06:18:33.022Z,543.00
2023-04-12T06:19:33.036Z,581.00
2023-04-12T06:20:32.994Z,579.00
2023-04-12T06:21:32.987Z,642.00
2023-04-12T06:22:33.014Z,546.00
2023-04-12T06:23:32.977Z,528.00
2023-04-12T06:24:32.957Z,618.00
2023-04-12T06:25:32.964Z,610.00
2023-04-12T06:26:39.710Z,537.00
2023-04-12T06:27:32.943Z,617.00
2023-04-12T06:28:32.917Z,648.00
2023-04-12T06:29:32.922Z,667.00
2023-04-12T06:30:32.914Z,806.00
2023-04-12T06:31:32.894Z,588.00
2023-04-12T06:32:32.868Z,795.00
2023-04-12T06:33:32.858Z,718.00
2023-04-12T06:34:34.764Z,492.00
2023-04-12T06:35:32.858Z,635.00
2023-04-12T06:36:32.828Z,785.00
2023-04-12T06:37:32.796Z,792.00
2023-04-12T06:38:32.786Z,678.00
2023-04-12T06:39:32.791Z,826.00
2023-04-12T06:40:32.797Z,741.00
2023-04-12T06:41:32.749Z,989.00
2023-04-12T06:42:32.754Z,972.00
2023-04-12T06:43:32.748Z,791.00
2023-04-12T06:44:32.739Z,708.00
2023-04-12T06:45:32.719Z,774.00
2023-04-12T06:46:32.753Z,953.00
2023-04-12T06:47:32.728Z,852.00
2023-04-12T06:48:32.725Z,943.00
2023-04-12T06:49:32.691Z,1048.00
2023-04-12T06:50:32.713Z,1076.00
2023-04-12T06:51:32.662Z,1016.00
2023-04-12T06:52:32.640Z,1046.00
2023-04-12T06:53:32.662Z,845.00
2023-04-12T06:54:32.636Z,983.00
2023-04-12T06:55:32.605Z,1287.00
2023-04-12T06:56:32.613Z,1024.00
2023-04-12T06:57:32.613Z,1029.00
2023-04-12T06:58:32.586Z,1025.00
2023-04-12T06:59:32.582Z,977.00
2023-04-12T07:00:32.635Z,834.00
2023-04-12T07:01:32.531Z,890.00
2023-04-12T07:02:32.859Z,815.00
2023-04-12T07:03:32.649Z,1079.00
2023-04-12T07:04:32.540Z,1037.00
2023-04-12T07:05:32.515Z,1058.00
2023-04-12T07:06:32.542Z,1098.00
2023-04-12T07:07:32.478Z,977.00
2023-04-12T07:08:32.467Z,1015.00
2023-04-12T07:09:32.496Z,910.00
2023-04-12T07:10:32.497Z,986.00
2023-04-12T07:11:32.454Z,1319.00
2023-04-12T07:12:32.455Z,1057.00
2023-04-12T07:13:32.410Z,1018.00
2023-04-12T07:14:32.436Z,1238.00
2023-04-12T07:15:32.387Z,1377.00
2023-04-12T07:16:32.552Z,1421.00
2023-04-12T07:17:32.374Z,1398.00
2023-04-12T07:18:32.391Z,1467.00
2023-04-12T07:19:32.338Z,1515.00
2023-04-12T07:20:32.340Z,1318.00
2023-04-12T07:21:32.362Z,1455.00
2023-04-12T07:22:32.318Z,1298.00
2023-04-12T07:23:32.311Z,1486.00
2023-04-12T07:24:32.314Z,1583.00
2023-04-12T07:25:32.305Z,1632.00
2023-04-12T07:26:32.295Z,1922.00
2023-04-12T07:27:32.263Z,1233.00
2023-04-12T07:28:32.258Z,1430.00
2023-04-12T07:29:32.274Z,1646.00
2023-04-12T07:30:32.223Z,1423.00
2023-04-12T07:31:32.226Z,1364.00
2023-04-12T07:32:32.324Z,1327.00
2023-04-12T07:33:32.288Z,1165.00
2023-04-12T07:34:32.214Z,1248.00
2023-04-12T07:35:32.240Z,1418.00
2023-04-12T07:36:32.169Z,1060.00
2023-04-12T07:37:32.154Z,1127.00
2023-04-12T07:38:32.159Z,1376.00
2023-04-12T07:39:32.150Z,1474.00
2023-04-12T07:40:32.129Z,1133.00
2023-04-12T07:41:32.128Z,1074.00
2023-04-12T07:42:32.118Z,972.00
2023-04-12T07:43:32.088Z,982.00
2023-04-12T07:44:32.088Z,973.00
2023-04-12T07:45:32.080Z,1101.00
2023-04-12T07:46:32.133Z,1128.00
2023-04-12T07:47:32.141Z,1340.00
2023-04-12T07:48:32.083Z,1241.00
2023-04-12T07:49:32.044Z,1550.00
2023-04-12T07:50:32.064Z,1404.00
2023-04-12T07:51:32.016Z,1454.00
2023-04-12T07:52:32.025Z,1430.00
2023-04-12T07:53:31.986Z,1589.00
2023-04-12T07:54:31.981Z,2173.00
2023-04-12T07:55:31.963Z,1553.00
2023-04-12T07:56:32.003Z,1347.00
2023-04-12T07:57:34.090Z,1323.00
2023-04-12T07:58:31.947Z,1508.00
2023-04-12T07:59:31.928Z,1409.00
2023-04-12T08:00:31.929Z,1749.00
2023-04-12T08:01:31.889Z,2119.00
2023-04-12T08:02:32.062Z,1965.00
2023-04-12T08:03:31.993Z,2839.00
2023-04-12T08:04:31.891Z,2942.00
2023-04-12T08:05:31.904Z,2625.00
2023-04-12T08:06:34.182Z,2103.00
2023-04-12T08:07:31.826Z,2210.00
2023-04-12T08:08:31.847Z,1849.00
2023-04-12T08:09:31.839Z,1835.00
2023-04-12T08:10:31.827Z,1587.00
2023-04-12T08:11:31.807Z,1286.00
2023-04-12T08:12:31.774Z,1026.00
2023-04-12T08:13:31.773Z,1070.00
2023-04-12T08:14:31.782Z,1025.00
2023-04-12T08:15:31.826Z,1180.00
2023-04-12T08:16:31.752Z,1299.00
2023-04-12T08:17:31.801Z,1317.00
2023-04-12T08:18:31.712Z,1418.00
2023-04-12T08:19:31.689Z,1246.00
2023-04-12T08:20:31.725Z,1526.00
2023-04-12T08:21:31.709Z,1476.00
2023-04-12T08:22:31.689Z,1722.00
2023-04-12T08:23:31.665Z,1817.00
2023-04-12T08:24:31.691Z,1456.00
2023-04-12T08:25:31.662Z,1545.00
2023-04-12T08:26:31.659Z,2091.00
2023-04-12T08:27:31.619Z,2364.00
2023-04-12T08:28:31.604Z,2431.00
2023-04-12T08:29:31.578Z,1928.00
2023-04-12T08:30:31.575Z,1941.00
2023-04-12T08:31:31.597Z,2104.00
2023-04-12T08:32:31.581Z,2217.00
2023-04-12T08:33:31.558Z,1935.00
2023-04-12T08:34:31.562Z,1816.00
2023-04-12T08:35:31.553Z,1481.00
2023-04-12T08:36:31.505Z,1475.00
2023-04-12T08:37:31.508Z,1439.00
2023-04-12T08:38:44.875Z,1460.00
2023-04-12T08:39:31.503Z,1721.00
2023-04-12T08:40:31.494Z,1492.00
2023-04-12T08:41:31.474Z,1248.00
2023-04-12T08:42:31.446Z,1225.00
2023-04-12T08:43:31.436Z,1732.00
2023-04-12T08:44:31.418Z,1492.00
2023-04-12T08:45:31.444Z,1389.00
2023-04-12T08:46:31.428Z,1662.00
2023-04-12T08:47:31.448Z,1879.00
2023-04-12T08:48:31.386Z,1758.00
2023-04-12T08:49:31.378Z,1730.00
2023-04-12T08:50:31.384Z,1654.00
2023-04-12T08:51:31.355Z,1917.00
2023-04-12T08:52:31.367Z,1748.00
2023-04-12T08:53:31.326Z,1539.00
2023-04-12T08:54:31.323Z,1329.00
2023-04-12T08:55:31.328Z,1252.00
2023-04-12T08:56:31.306Z,1041.00
2023-04-12T08:57:31.799Z,1418.00
2023-04-12T08:58:31.311Z,1757.00
2023-04-12T08:59:31.290Z,1748.00
2023-04-12T09:00:31.268Z,1630.00
2023-04-12T09:01:31.273Z,1258.00
2023-04-12T09:02:31.651Z,1618.00
2023-04-12T09:03:33.515Z,1461.00
2023-04-12T09:04:31.292Z,1556.00
2023-04-12T09:05:31.339Z,2040.00
2023-04-12T09:06:31.276Z,1332.00
2023-04-12T09:07:31.215Z,1706.00
2023-04-12T09:08:31.194Z,2135.00
2023-04-12T09:09:31.164Z,1578.00
2023-04-12T09:10:31.178Z,1615.00
2023-04-12T09:11:31.136Z,1489.00
2023-04-12T09:12:31.147Z,2040.00
2023-04-12T09:13:31.135Z,1919.00
2023-04-12T09:14:31.117Z,1802.00
2023-04-12T09:15:31.113Z,1535.00
2023-04-12T09:16:31.128Z,1941.00
2023-04-12T09:17:31.125Z,1512.00
2023-04-12T09:18:31.106Z,1599.00
2023-04-12T09:19:31.056Z,1774.00
2023-04-12T09:20:31.039Z,1497.00
2023-04-12T09:21:31.052Z,1937.00
2023-04-12T09:22:31.051Z,1676.00
2023-04-12T09:23:31.038Z,1841.00
2023-04-12T09:24:30.987Z,2114.00
2023-04-12T09:25:30.997Z,2390.00
2023-04-12T09:26:30.991Z,2198.00
2023-04-12T09:27:30.996Z,2574.00
2023-04-12T09:28:30.942Z,2409.00
2023-04-12T09:29:30.942Z,1811.00
2023-04-12T09:30:30.932Z,1940.00
2023-04-12T09:31:30.973Z,1702.00
2023-04-12T09:32:31.016Z,1673.00
2023-04-12T09:33:30.889Z,2475.00
2023-04-12T09:34:30.902Z,2435.00
2023-04-12T09:35:30.936Z,2052.00
2023-04-12T09:36:30.915Z,1873.00
2023-04-12T09:37:30.927Z,1795.00
2023-04-12T09:38:30.860Z,1475.00
2023-04-12T09:39:30.874Z,1350.00
2023-04-12T09:40:30.841Z,1161.00
2023-04-12T09:41:30.876Z,1118.00
2023-04-12T09:42:34.097Z,1539.00
2023-04-12T09:43:30.827Z,1435.00
2023-04-12T09:44:30.782Z,1337.00
2023-04-12T09:45:30.793Z,1486.00
2023-04-12T09:46:30.844Z,1822.00
2023-04-12T09:47:30.802Z,1592.00
2023-04-12T09:48:30.745Z,1598.00
2023-04-12T09:49:30.772Z,1479.00
2023-04-12T09:50:30.767Z,1192.00
2023-04-12T09:51:30.727Z,1665.00
2023-04-12T09:52:32.348Z,1466.00
2023-04-12T09:53:30.721Z,1782.00
2023-04-12T09:54:30.720Z,1962.00
2023-04-12T09:55:30.695Z,2104.00
2023-04-12T09:56:30.688Z,1568.00
2023-04-12T09:57:30.672Z,1706.00
2023-04-12T09:58:31.656Z,1651.00
2023-04-12T09:59:30.618Z,1653.00
2023-04-12T10:00:30.605Z,1516.00
2023-04-12T10:01:30.699Z,1521.00
2023-04-12T10:02:30.794Z,1447.00
2023-04-12T10:03:30.791Z,1304.00
2023-04-12T10:04:30.717Z,1797.00
2023-04-12T10:05:30.629Z,2391.00
2023-04-12T10:06:30.537Z,2521.00
2023-04-12T10:07:30.547Z,1880.00
2023-04-12T10:08:30.554Z,2420.00
2023-04-12T10:09:30.546Z,2636.00
2023-04-12T10:10:30.516Z,2334.00
2023-04-12T10:11:30.508Z,2313.00
2023-04-12T10:12:30.481Z,2623.00
2023-04-12T10:13:30.487Z,2451.00
2023-04-12T10:14:30.477Z,1818.00
2023-04-12T10:15:30.500Z,2181.00
2023-04-12T10:16:30.482Z,1794.00
2023-04-12T10:17:30.451Z,2163.00
2023-04-12T10:18:30.432Z,2213.00
2023-04-12T10:19:30.424Z,1686.00
2023-04-12T10:20:30.407Z,2107.00
2023-04-12T10:21:30.372Z,2570.00
2023-04-12T10:22:30.392Z,2626.00
2023-04-12T10:23:30.387Z,2221.00
2023-04-12T10:24:30.363Z,2295.00
2023-04-12T10:25:30.377Z,2039.00
2023-04-12T10:26:30.354Z,2064.00
2023-04-12T10:27:30.333Z,2240.00
2023-04-12T10:28:30.313Z,2136.00
2023-04-12T10:29:30.311Z,2864.00
2023-04-12T10:30:30.289Z,3150.00
2023-04-12T10:31:30.347Z,3807.00
2023-04-12T10:32:30.325Z,2625.00
2023-04-12T10:33:30.297Z,3445.00
2023-04-12T10:34:30.243Z,2754.00
2023-04-12T10:35:30.263Z,3568.00
2023-04-12T10:36:30.278Z,3018.00
2023-04-12T10:37:30.223Z,2257.00
2023-04-12T10:38:30.243Z,2601.00
2023-04-12T10:39:30.209Z,2542.00
2023-04-12T10:40:30.176Z,2356.00
2023-04-12T10:41:30.174Z,2530.00
2023-04-12T10:42:30.147Z,3176.00
2023-04-12T10:43:30.236Z,2560.00
2023-04-12T10:44:30.192Z,3237.00
2023-04-12T10:45:30.161Z,2670.00
2023-04-12T10:46:30.182Z,3312.00
2023-04-12T10:47:31.265Z,2901.00
2023-04-12T10:48:30.085Z,2593.00
2023-04-12T10:49:30.113Z,2151.00
2023-04-12T10:50:30.130Z,4047.00
2023-04-12T10:51:30.119Z,3160.00
2023-04-12T10:52:30.093Z,3518.00
2023-04-12T10:53:30.077Z,2909.00
2023-04-12T10:54:30.036Z,2588.00
2023-04-12T10:55:30.032Z,1413.00
2023-04-12T10:56:32.039Z,2729.00
2023-04-12T10:57:30.069Z,3071.00
2023-04-12T10:58:30.075Z,3320.00
2023-04-12T10:59:41.074Z,2534.00
2023-04-12T11:00:30.069Z,2762.00
2023-04-12T11:01:30.107Z,1767.00
2023-04-12T11:02:30.203Z,1430.00
2023-04-12T11:03:30.071Z,1087.00
2023-04-12T11:04:30.177Z,1391.00
2023-04-12T11:05:29.979Z,1693.00
2023-04-12T11:06:29.900Z,1976.00
2023-04-12T11:07:29.930Z,1694.00
2023-04-12T11:08:29.905Z,4212.00
2023-04-12T11:09:29.907Z,3499.00
2023-04-12T11:10:29.886Z,4974.00
2023-04-12T11:11:29.854Z,4817.00
2023-04-12T11:12:29.841Z,5425.00
2023-04-12T11:13:29.873Z,3821.00
2023-04-12T11:14:29.850Z,3042.00
2023-04-12T11:15:29.860Z,3124.00
2023-04-12T11:16:29.894Z,2490.00
2023-04-12T11:17:29.889Z,2951.00
2023-04-12T11:18:29.832Z,2894.00
2023-04-12T11:19:29.818Z,3390.00
2023-04-12T11:20:29.797Z,3914.00
2023-04-12T11:21:29.776Z,2608.00
2023-04-12T11:22:29.783Z,2595.00
2023-04-12T11:23:29.737Z,2288.00
2023-04-12T11:24:29.743Z,3322.00
2023-04-12T11:25:29.707Z,4135.00
2023-04-12T11:26:29.686Z,5593.00
2023-04-12T11:27:29.700Z,5320.00
2023-04-12T11:28:31.860Z,4693.00
2023-04-12T11:29:29.647Z,4889.00
2023-04-12T11:30:29.634Z,3091.00
2023-04-12T11:31:29.702Z,3858.00
2023-04-12T11:32:29.635Z,4097.00
2023-04-12T11:33:29.608Z,4564.00
2023-04-12T11:34:29.587Z,3616.00
2023-04-12T11:35:29.597Z,3043.00
2023-04-12T11:36:29.574Z,2494.00
2023-04-12T11:37:29.581Z,3223.00
2023-04-12T11:38:29.590Z,4931.00
2023-04-12T11:39:31.934Z,3531.00
2023-04-12T11:40:29.523Z,3684.00
2023-04-12T11:41:29.512Z,4481.00
2023-04-12T11:42:29.586Z,3443.00
2023-04-12T11:43:29.509Z,3170.00
2023-04-12T11:44:33.582Z,4804.00
2023-04-12T11:45:29.502Z,3988.00
2023-04-12T11:46:29.486Z,5520.00
2023-04-12T11:47:29.503Z,4119.00
2023-04-12T11:48:29.515Z,3329.00
2023-04-12T11:49:29.447Z,3928.00
2023-04-12T11:50:29.415Z,2934.00
2023-04-12T11:51:32.339Z,4804.00
2023-04-12T11:52:29.387Z,3737.00
2023-04-12T11:53:29.387Z,3196.00
2023-04-12T11:54:29.396Z,5540.00
2023-04-12T11:55:29.396Z,4280.00
2023-04-12T11:56:29.382Z,6564.00
2023-04-12T11:57:29.435Z,3396.00
2023-04-12T11:58:29.321Z,3440.00
2023-04-12T11:59:29.324Z,4745.00
2023-04-12T12:00:29.299Z,4418.00
2023-04-12T12:01:29.348Z,2860.00
2023-04-12T12:02:34.528Z,5100.00
2023-04-12T12:03:29.436Z,5748.00
2023-04-12T12:04:29.543Z,3132.00
2023-04-12T12:05:29.558Z,3208.00
2023-04-12T12:06:29.623Z,4428.00
2023-04-12T12:07:29.784Z,2881.00
2023-04-12T12:08:29.246Z,2699.00
2023-04-12T12:09:29.200Z,2009.00
2023-04-12T12:10:43.660Z,2959.00
2023-04-12T12:11:29.187Z,2880.00
2023-04-12T12:12:29.205Z,3868.00
2023-04-12T12:13:29.225Z,3465.00
2023-04-12T12:14:29.166Z,5306.00
2023-04-12T12:15:29.153Z,5019.00
2023-04-12T12:16:29.208Z,5061.00
2023-04-12T12:17:29.198Z,6008.00
2023-04-12T12:18:29.141Z,4181.00
2023-04-12T12:19:29.106Z,4457.00
2023-04-12T12:20:29.088Z,3241.00
2023-04-12T12:21:29.094Z,2951.00
2023-04-12T12:22:29.065Z,3075.00
2023-04-12T12:23:29.060Z,3732.00
2023-04-12T12:24:29.062Z,2807.00
2023-04-12T12:25:29.068Z,3019.00
2023-04-12T12:26:29.030Z,3055.00
2023-04-12T12:27:29.056Z,3863.00
2023-04-12T12:28:29.003Z,3762.00
2023-04-12T12:29:28.995Z,6067.00
2023-04-12T12:30:29.077Z,7238.00
2023-04-12T12:31:29.192Z,4157.00
2023-04-12T12:32:29.021Z,2811.00
2023-04-12T12:33:38.844Z,14685.00
2023-04-12T12:34:28.943Z,14261.00
2023-04-12T12:35:28.950Z,10685.00